Time;durP1;ratioP1;P1;durP2;ratioP2;P2;SDS_P1;SDS_P2;PMS_P1;PMS_P2;Temp;Humidity;BMP_temperature;BMP_pressure;BME280_temperature;BME280_humidity;BME280_pressure;Samples;Min_cycle;Max_cycle;Signal;HPM_P1;HPM_P2
2023/04/22 00:02:06;;;;;;;4.60;3.43;;;11.40;77.30;;;11.06;67.09;97421.28;5023863;28;20529;-74
2023/04/22 00:04:33;;;;;;;4.53;3.73;;;11.40;77.10;;;11.17;66.75;97433.19;5039715;28;20473;-73
2023/04/22 00:07:01;;;;;;;4.00;3.57;;;11.50;77.00;;;11.19;66.55;97431.06;5046777;28;20452;-73
2023/04/22 00:09:28;;;;;;;7.10;3.50;;;11.50;76.90;;;11.17;66.38;97430.47;5049150;28;20469;-71
2023/04/22 00:11:56;;;;;;;3.77;3.43;;;11.50;76.80;;;11.03;65.74;97398.25;5048049;28;20457;-71
2023/04/22 00:14:24;;;;;;;3.37;3.00;;;11.60;76.60;;;11.23;65.96;97421.41;5049965;28;20456;-72
2023/04/22 00:16:52;;;;;;;5.30;3.90;;;11.60;76.40;;;11.12;66.25;97403.31;5041435;28;20461;-72
2023/04/22 00:19:20;;;;;;;3.83;3.53;;;11.60;76.30;;;11.20;65.54;97416.50;5049929;28;20461;-74
2023/04/22 00:21:48;;;;;;;4.10;3.70;;;11.60;76.30;;;11.14;65.60;97417.41;5045809;28;20446;-73
2023/04/22 00:24:15;;;;;;;4.13;3.37;;;11.60;76.20;;;11.18;65.70;97421.31;5049137;28;20472;-75
2023/04/22 00:26:42;;;;;;;3.40;2.80;;;11.50;76.40;;;10.83;65.85;97365.31;5051026;28;20458;-72
2023/04/22 00:29:09;;;;;;;3.77;2.83;;;11.50;76.60;;;11.09;65.70;97415.44;5057237;28;20465;-73
2023/04/22 00:31:37;;;;;;;3.50;3.10;;;11.40;76.50;;;10.95;65.98;97414.81;5046610;28;20444;-71
2023/04/22 00:34:05;;;;;;;3.87;3.03;;;11.30;76.60;;;11.08;65.90;97411.06;5049971;28;20536;-71
2023/04/22 00:36:32;;;;;;;4.70;3.47;;;11.40;76.60;;;11.02;66.49;97410.13;5046894;28;20444;-71
2023/04/22 00:39:00;;;;;;;4.20;3.80;;;11.30;76.70;;;11.01;65.95;97403.06;5042565;28;20545;-73
2023/04/22 00:41:29;;;;;;;4.13;3.03;;;11.30;76.60;;;11.07;65.67;97419.41;5046595;28;20437;-72
2023/04/22 00:43:58;;;;;;;4.33;3.67;;;11.40;76.50;;;11.07;66.18;97405.91;5048766;28;20508;-73
2023/04/22 00:46:26;;;;;;;3.47;3.17;;;11.40;76.50;;;11.01;65.79;97408.47;5042934;28;20453;-72
2023/04/22 00:48:54;;;;;;;3.83;3.23;;;11.40;76.40;;;11.09;65.47;97414.59;5046068;28;20523;-72
2023/04/22 00:51:22;;;;;;;3.33;3.03;;;11.40;76.00;;;11.13;65.77;97410.34;5037676;28;20556;-72
2023/04/22 00:53:49;;;;;;;3.50;3.20;;;11.50;76.00;;;11.09;65.48;97410.03;5051502;28;20479;-71
2023/04/22 00:56:17;;;;;;;3.00;2.70;;;11.50;75.90;;;10.94;65.94;97418.56;5048918;28;20457;-73
2023/04/22 00:58:44;;;;;;;5.70;4.07;;;11.30;76.10;;;10.80;66.46;97425.22;5053337;28;20799;-72
2023/04/22 01:01:12;;;;;;;4.77;3.47;;;11.20;76.30;;;10.76;65.76;97423.00;5043457;28;20614;-73
2023/04/22 01:03:41;;;;;;;5.10;3.00;;;11.10;76.40;;;10.74;66.33;97429.69;5048514;28;20483;-72
2023/04/22 01:06:08;;;;;;;5.83;2.93;;;11.10;76.50;;;10.68;66.46;97426.00;5042105;28;20538;-73
2023/04/22 01:08:37;;;;;;;5.43;3.60;;;11.00;76.80;;;10.58;67.25;97425.78;5052790;28;21305;-71
2023/04/22 01:11:04;;;;;;;5.97;3.40;;;11.00;76.90;;;10.55;67.15;97431.63;5046083;28;20890;-71
2023/04/22 01:13:31;;;;;;;4.70;3.97;;;10.90;77.10;;;10.54;67.23;97429.97;5065597;28;20444;-71
2023/04/22 01:16:00;;;;;;;3.37;3.07;;;10.80;77.30;;;10.43;67.77;97424.31;5040645;28;20819;-72
2023/04/22 01:18:27;;;;;;;5.43;3.80;;;10.80;77.90;;;10.64;66.94;97435.66;5046267;28;20459;-72
2023/04/22 01:20:55;;;;;;;5.73;3.50;;;10.90;77.40;;;10.38;67.06;97386.31;5046561;28;21101;-72
2023/04/22 01:23:23;;;;;;;4.10;3.53;;;10.90;77.30;;;10.60;67.24;97423.66;5051908;28;20479;-72
2023/04/22 01:25:51;;;;;;;4.60;3.60;;;10.90;77.40;;;10.68;66.61;97422.50;5048065;28;20446;-72
2023/04/22 01:28:18;;;;;;;4.03;3.40;;;10.90;77.30;;;10.74;66.36;97425.13;5045738;28;20492;-72
2023/04/22 01:30:46;;;;;;;5.17;3.30;;;11.00;77.30;;;10.71;67.45;97420.19;5045627;28;20445;-71
2023/04/22 01:33:15;;;;;;;4.23;3.63;;;11.00;77.20;;;10.61;66.90;97398.28;5045097;28;20460;-73
2023/04/22 01:35:42;;;;;;;3.40;3.10;;;11.00;77.10;;;10.07;67.17;97328.81;5046826;28;20457;-73
2023/04/22 01:38:12;;;;;;;3.50;3.20;;;11.00;77.30;;;10.52;66.69;97402.38;5034483;28;20522;-72
2023/04/22 01:40:41;;;;;;;5.90;3.90;;;11.00;77.20;;;10.64;66.78;97419.44;5067879;28;20476;-71
2023/04/22 01:43:08;;;;;;;4.23;3.27;;;11.00;77.10;;;10.61;67.23;97430.72;5047277;28;20449;-72
2023/04/22 01:45:36;;;;;;;4.80;4.00;;;11.00;77.20;;;10.54;67.53;97419.16;5041902;28;20460;-72
2023/04/22 01:48:05;;;;;;;5.07;3.73;;;11.00;77.20;;;10.55;67.66;97431.63;5041240;28;20451;-72
2023/04/22 01:50:33;;;;;;;5.10;3.70;;;10.90;77.20;;;10.53;67.81;97421.06;5051781;28;20447;-72
2023/04/22 01:53:01;;;;;;;4.67;4.27;;;11.00;77.30;;;10.47;67.61;97420.09;5041128;28;20467;-70
2023/04/22 01:55:28;;;;;;;4.27;3.87;;;10.90;77.20;;;10.46;67.75;97429.25;5041262;28;20450;-71
2023/04/22 01:57:57;;;;;;;4.97;3.87;;;10.90;77.40;;;10.41;67.25;97425.59;5048495;28;20990;-73
2023/04/22 02:00:24;;;;;;;3.73;3.00;;;10.90;77.40;;;10.50;67.31;97429.63;5044933;28;20511;-72
2023/04/22 02:02:51;;;;;;;4.33;3.70;;;10.90;77.50;;;10.41;67.51;97426.41;5043851;28;21216;-71
2023/04/22 02:05:19;;;;;;;4.80;4.30;;;10.90;77.40;;;10.32;68.58;97423.19;5040580;28;20531;-71
2023/04/22 02:07:46;;;;;;;4.13;3.70;;;10.80;77.40;;;10.29;68.71;97414.72;5059959;28;20457;-71
2023/04/22 02:10:13;;;;;;;4.33;3.30;;;10.80;77.50;;;10.27;67.93;97414.94;5036325;28;20986;-71
2023/04/22 02:12:41;;;;;;;5.50;3.20;;;10.80;77.40;;;10.35;67.28;97422.72;5045798;28;20472;-71
2023/04/22 02:15:11;;;;;;;3.80;3.40;;;10.80;77.30;;;10.36;67.96;97420.81;5051114;28;20445;-72
2023/04/22 02:17:41;;;;;;;4.40;4.00;;;10.80;77.30;;;10.34;67.85;97422.94;5046991;28;20457;-72
2023/04/22 02:20:10;;;;;;;4.07;3.67;;;10.80;77.30;;;10.24;68.51;97431.59;5048482;28;20512;-73
2023/04/22 02:22:37;;;;;;;5.37;3.73;;;10.70;77.50;;;10.13;68.78;97429.66;5046610;28;20492;-71
2023/04/22 02:25:06;;;;;;;4.87;4.30;;;10.50;77.70;;;10.08;68.50;97435.72;5049390;28;20480;-71
2023/04/22 02:27:34;;;;;;;4.77;3.33;;;10.40;78.00;;;9.87;68.22;97383.88;5048169;28;20449;-71
2023/04/22 02:30:01;;;;;;;4.37;3.70;;;10.50;78.20;;;10.13;67.98;97435.88;5041054;28;20558;-71
2023/04/22 02:32:30;;;;;;;4.37;3.33;;;10.50;77.70;;;10.14;68.34;97442.09;5050335;28;20448;-71
2023/04/22 02:34:57;;;;;;;6.17;3.70;;;10.60;77.70;;;10.16;68.50;97434.59;5047224;28;20445;-71
2023/04/22 02:37:25;;;;;;;6.00;4.60;;;10.50;77.70;;;10.08;68.32;97443.81;5043706;28;20446;-72
2023/04/22 02:39:52;;;;;;;4.80;3.70;;;10.50;77.90;;;10.02;68.25;97445.56;5045354;28;20512;-71
2023/04/22 02:42:19;;;;;;;4.33;3.83;;;10.40;78.00;;;9.95;69.10;97444.81;5039997;28;20489;-71
2023/04/22 02:44:46;;;;;;;4.40;3.80;;;10.30;78.30;;;9.73;69.84;97423.69;5038750;28;20472;-70
2023/04/22 02:47:13;;;;;;;4.67;3.40;;;10.20;78.60;;;9.90;69.70;97447.38;5049314;28;20457;-71
2023/04/22 02:49:42;;;;;;;5.13;4.10;;;10.10;78.80;;;10.02;69.14;97450.13;5050275;28;20529;-72
2023/04/22 02:52:10;;;;;;;3.70;2.93;;;10.20;78.70;;;9.99;69.15;97454.09;5039212;28;20454;-73
2023/04/22 02:54:37;;;;;;;4.17;3.77;;;10.30;78.60;;;10.01;68.95;97451.19;5043133;28;20457;-73
2023/04/22 02:57:04;;;;;;;9.37;4.80;;;10.30;78.50;;;9.97;68.98;97448.09;5042724;28;20454;-73
2023/04/22 02:59:32;;;;;;;4.53;3.60;;;10.30;78.50;;;9.81;69.64;97443.31;5036020;28;20473;-72
2023/04/22 03:01:59;;;;;;;3.97;3.57;;;10.20;78.60;;;9.77;70.27;97451.84;5043394;28;20827;-71
2023/04/22 03:04:26;;;;;;;7.40;4.77;;;10.10;79.00;;;9.37;70.61;97411.00;5042428;28;20991;-72
2023/04/22 03:06:55;;;;;;;5.43;4.80;;;10.00;79.10;;;9.50;70.87;97454.00;5042285;28;20456;-73
2023/04/22 03:09:22;;;;;;;4.43;3.60;;;9.80;80.50;;;9.36;71.64;97458.69;5047201;28;20476;-73
2023/04/22 03:11:49;;;;;;;4.17;3.47;;;9.70;80.90;;;9.12;71.59;97422.63;5044275;28;20979;-73
2023/04/22 03:14:16;;;;;;;5.07;3.77;;;9.60;81.20;;;9.46;71.29;97450.09;5039814;28;20961;-71
2023/04/22 03:16:43;;;;;;;4.27;3.87;;;9.60;81.30;;;9.53;70.70;97452.72;5044914;28;20549;-73
2023/04/22 03:19:11;;;;;;;4.23;3.60;;;9.70;81.40;;;9.39;71.07;97438.56;5045825;28;20517;-73
2023/04/22 03:21:38;;;;;;;4.73;3.80;;;9.70;81.10;;;9.47;71.71;97443.66;5046181;28;20456;-73
2023/04/22 03:24:07;;;;;;;4.33;3.13;;;9.80;81.20;;;9.37;71.53;97440.66;5046609;28;20554;-73
2023/04/22 03:26:34;;;;;;;5.77;3.90;;;9.70;81.20;;;9.30;71.59;97443.41;5044073;28;20452;-72
2023/04/22 03:29:01;;;;;;;6.30;3.53;;;9.60;81.30;;;9.23;71.90;97454.25;5038050;28;20459;-72
2023/04/22 03:31:28;;;;;;;4.20;3.33;;;9.50;81.60;;;9.15;71.60;97441.88;5045924;28;20505;-73
2023/04/22 03:33:56;;;;;;;4.53;3.50;;;9.50;81.80;;;9.18;72.44;97451.41;5053757;28;20446;-73
2023/04/22 03:36:23;;;;;;;4.10;3.70;;;9.50;81.70;;;9.11;72.15;97429.06;5043932;28;20464;-72
2023/04/22 03:38:50;;;;;;;4.60;3.43;;;9.50;82.00;;;9.22;71.97;97444.50;5071981;28;20432;-72
2023/04/22 03:41:19;;;;;;;7.60;4.13;;;9.50;81.80;;;8.83;72.33;97381.81;5050988;28;20534;-73
2023/04/22 03:43:46;;;;;;;4.47;3.40;;;9.50;81.90;;;9.14;72.10;97432.13;5050880;28;20440;-71
2023/04/22 03:46:13;;;;;;;4.40;3.50;;;9.60;81.90;;;9.18;72.32;97446.81;5039796;28;21093;-71
2023/04/22 03:48:40;;;;;;;8.63;3.10;;;9.60;81.70;;;9.19;71.60;97442.25;5057159;28;20451;-72
2023/04/22 03:51:07;;;;;;;4.87;4.03;;;9.60;81.60;;;9.15;71.47;97436.47;5054203;28;20472;-72
2023/04/22 03:53:34;;;;;;;4.10;3.60;;;9.60;81.60;;;9.12;72.36;97438.78;5078713;28;20474;-71
2023/04/22 03:56:01;;;;;;;4.30;3.90;;;9.50;81.50;;;9.05;72.35;97441.53;5057961;28;20472;-72
2023/04/22 03:58:30;;;;;;;5.67;4.10;;;9.40;81.90;;;9.01;72.46;97443.84;5058564;28;20474;-71
2023/04/22 04:00:57;;;;;;;3.63;3.30;;;9.40;82.20;;;8.92;72.26;97429.81;5044645;28;20453;-72
2023/04/22 04:03:25;;;;;;;4.57;3.37;;;9.30;82.10;;;8.92;72.49;97437.91;5056676;28;20456;-72
2023/04/22 04:05:52;;;;;;;4.00;3.60;;;9.30;82.40;;;8.92;72.61;97437.09;5055475;28;20970;-72
2023/04/22 04:08:19;;;;;;;4.57;4.17;;;9.20;82.40;;;8.95;71.95;97436.63;5057014;28;20526;-72
2023/04/22 04:10:47;;;;;;;3.47;3.17;;;9.30;82.10;;;8.89;72.16;97426.75;5042337;28;20438;-71
2023/04/22 04:13:14;;;;;;;4.70;3.73;;;9.30;82.10;;;8.87;72.38;97424.25;5047866;28;20468;-72
2023/04/22 04:15:42;;;;;;;6.87;3.87;;;9.30;82.30;;;8.85;72.95;97414.75;5037977;28;20498;-71
2023/04/22 04:18:10;;;;;;;5.23;3.50;;;9.30;82.40;;;8.88;72.53;97425.09;5042809;28;20447;-72
2023/04/22 04:20:37;;;;;;;4.03;3.40;;;9.30;82.20;;;8.97;72.74;97434.53;5048555;28;20462;-72
2023/04/22 04:23:05;;;;;;;8.23;3.73;;;9.30;82.10;;;8.77;71.62;97387.03;5047806;28;20457;-73
2023/04/22 04:25:37;;;;;;;5.00;4.17;;;9.40;81.60;;;8.49;71.47;97330.88;5049107;28;20461;-71
2023/04/22 04:28:08;;;;;;;6.23;3.30;;;9.50;81.70;;;9.17;71.11;97434.38;5047766;28;20446;-74
2023/04/22 04:30:35;;;;;;;4.00;3.43;;;9.50;81.60;;;9.35;70.51;97425.53;5046348;28;20463;-73
2023/04/22 04:33:05;;;;;;;4.00;3.60;;;9.60;81.30;;;9.35;69.46;97425.53;5050226;28;20562;-73
2023/04/22 04:35:33;;;;;;;4.23;3.50;;;9.80;80.80;;;9.51;69.64;97434.09;5045637;28;20451;-74
2023/04/22 04:38:01;;;;;;;4.13;3.60;;;9.90;80.80;;;9.92;68.91;97429.88;5043424;28;20536;-72
2023/04/22 04:40:30;;;;;;;3.33;2.73;;;10.20;79.50;;;9.86;66.38;97290.50;5034953;28;20534;-74
2023/04/22 04:42:57;;;;;;;4.70;3.63;;;11.10;78.70;;;11.30;63.43;97427.56;5045773;28;20463;-69
2023/04/22 04:45:25;;;;;;;4.03;3.63;;;11.80;76.50;;;11.53;61.91;97430.50;5046132;28;20478;-73
2023/04/22 04:47:53;;;;;;;4.50;3.30;;;12.20;74.70;;;11.32;62.58;97428.13;5038299;28;20477;-72
2023/04/22 04:50:22;;;;;;;3.53;3.23;;;12.00;74.10;;;11.76;61.00;97430.44;5050299;28;20543;-72
2023/04/22 04:52:49;;;;;;;4.50;3.60;;;12.40;73.40;;;11.82;60.71;97434.09;5028311;28;20502;-72
2023/04/22 04:55:17;;;;;;;3.80;3.33;;;12.60;72.70;;;11.88;60.40;97441.25;5038115;28;20539;-72
2023/04/22 04:57:44;;;;;;;3.57;3.27;;;12.60;72.10;;;12.15;60.07;97435.34;5033880;28;20464;-73
2023/04/22 05:00:13;;;;;;;4.00;2.90;;;12.90;72.00;;;12.91;58.04;97428.06;5046269;28;20450;-71
2023/04/22 05:02:40;;;;;;;3.70;3.40;;;13.70;70.90;;;13.44;56.13;97442.22;5045190;28;20446;-73
2023/04/22 05:05:10;;;;;;;3.57;3.27;;;14.30;68.50;;;13.34;56.16;97441.22;5043221;28;20479;-72
2023/04/22 05:07:38;;;;;;;2.93;2.70;;;14.50;66.70;;;13.92;54.49;97438.28;5070168;28;20454;-72
2023/04/22 05:10:07;;;;;;;4.10;3.43;;;15.00;65.80;;;14.29;53.22;97440.38;5046762;28;20452;-72
2023/04/22 05:12:34;;;;;;;3.67;3.20;;;15.30;64.00;;;14.19;52.77;97432.13;5053415;28;20458;-73
2023/04/22 05:15:01;;;;;;;4.23;3.60;;;15.10;63.10;;;13.62;54.19;97434.09;5053428;28;20453;-73
2023/04/22 05:17:29;;;;;;;3.90;3.57;;;14.50;63.60;;;13.66;53.97;97430.63;5043158;28;20562;-73
2023/04/22 05:19:56;;;;;;;3.80;3.17;;;14.60;63.70;;;14.10;53.22;97437.13;5039077;28;20772;-73
2023/04/22 05:22:23;;;;;;;4.60;3.70;;;15.00;63.20;;;14.98;50.85;97451.72;5049219;28;20450;-73
2023/04/22 05:24:52;;;;;;;4.43;3.43;;;15.50;61.90;;;14.93;50.24;97438.88;5044176;28;20486;-72
2023/04/22 05:27:19;;;;;;;3.30;3.00;;;15.90;60.60;;;15.35;49.51;97442.78;5037312;28;20465;-72
2023/04/22 05:29:46;;;;;;;4.03;2.80;;;16.30;59.50;;;15.75;48.23;97442.47;5062587;28;20844;-72
2023/04/22 05:32:14;;;;;;;3.23;2.97;;;16.70;58.40;;;15.23;49.48;97439.41;5044816;28;20563;-73
2023/04/22 05:34:41;;;;;;;4.90;3.47;;;16.50;58.50;;;14.83;50.26;97449.69;5062621;28;21334;-72
2023/04/22 05:37:09;;;;;;;3.40;3.10;;;16.00;58.10;;;15.34;49.15;97448.47;5047910;28;20963;-72
2023/04/22 05:39:36;;;;;;;3.93;3.50;;;16.20;58.00;;;14.92;50.15;97452.75;5048292;28;20493;-73
2023/04/22 05:42:05;;;;;;;2.97;2.73;;;16.20;57.70;;;14.76;50.35;97460.75;5042054;28;21245;-73
2023/04/22 05:44:33;;;;;;;3.73;3.43;;;16.10;57.80;;;14.13;51.15;97410.31;5045381;28;20478;-72
2023/04/22 05:47:00;;;;;;;4.10;3.70;;;15.60;58.10;;;14.15;51.89;97446.19;5046383;28;20464;-73
2023/04/22 05:49:27;;;;;;;5.53;3.07;;;15.50;57.90;;;13.26;53.88;97450.59;5043281;28;20483;-73
2023/04/22 05:51:54;;;;;;;3.93;3.53;;;14.60;58.50;;;12.71;55.78;97456.47;5041587;28;20469;-73
2023/04/22 05:54:22;;;;;;;4.20;2.87;;;13.70;60.10;;;12.60;56.23;97458.16;5039100;28;20483;-73
2023/04/22 05:56:49;;;;;;;5.50;3.17;;;13.30;61.50;;;12.39;56.95;97459.66;5045774;28;20475;-72
2023/04/22 05:59:20;;;;;;;3.80;3.50;;;13.00;62.60;;;12.47;56.86;97467.38;5046504;28;20466;-72
2023/04/22 06:01:47;;;;;;;5.17;3.90;;;12.80;63.30;;;12.24;57.46;97445.81;5054017;28;20499;-73
2023/04/22 06:04:15;;;;;;;3.70;3.40;;;12.70;64.20;;;12.45;57.34;97468.72;5030848;28;20451;-71
2023/04/22 06:06:42;;;;;;;5.13;3.63;;;12.80;64.70;;;12.56;57.24;97469.72;5042619;28;21113;-71
2023/04/22 06:09:10;;;;;;;5.73;3.57;;;12.80;64.80;;;12.54;57.58;97478.09;5048409;28;20457;-70
2023/04/22 06:11:37;;;;;;;3.90;3.50;;;12.90;65.10;;;12.75;56.60;97468.47;5042642;28;20459;-69
2023/04/22 06:14:04;;;;;;;3.20;2.90;;;13.00;65.00;;;12.87;58.23;97473.00;5048632;28;20461;-66
2023/04/22 06:16:34;;;;;;;3.63;3.20;;;13.10;66.20;;;12.63;56.47;97467.69;5037052;28;21262;-69
2023/04/22 06:19:01;;;;;;;3.63;3.33;;;13.10;64.20;;;12.22;57.71;97461.50;5039727;28;21121;-69
2023/04/22 06:21:28;;;;;;;3.50;2.80;;;12.90;64.60;;;12.21;57.74;97467.94;5041653;28;20444;-69
2023/04/22 06:23:55;;;;;;;6.60;3.00;;;12.70;64.90;;;12.46;57.46;97475.78;5039672;28;20503;-69
2023/04/22 06:26:24;;;;;;;4.00;3.40;;;12.80;65.10;;;12.45;57.54;97474.94;5041850;28;20508;-67
2023/04/22 06:28:52;;;;;;;3.90;3.60;;;12.90;65.10;;;12.54;57.00;97461.03;5053110;28;20558;-72
2023/04/22 06:31:19;;;;;;;3.27;2.97;;;13.00;65.00;;;12.77;56.83;97462.81;5050551;28;20483;-72
2023/04/22 06:33:48;;;;;;;3.57;3.10;;;13.10;65.10;;;12.77;57.07;97414.00;5067476;28;20458;-72
2023/04/22 06:36:15;;;;;;;3.30;2.80;;;13.30;65.80;;;13.68;57.04;97468.34;5056330;28;20454;-75
2023/04/22 06:38:42;;;;;;;3.60;3.17;;;13.70;66.40;;;13.93;54.17;97467.09;5042966;28;20475;-76
2023/04/22 06:41:09;;;;;;;3.17;2.87;;;14.10;64.80;;;13.81;53.50;97476.16;5054232;28;20480;-72
2023/04/22 06:43:36;;;;;;;2.97;2.70;;;14.20;63.00;;;13.90;53.44;97468.41;5050354;28;20446;-71
2023/04/22 06:46:04;;;;;;;4.67;3.63;;;14.30;62.80;;;14.10;52.78;97467.84;5050123;28;20466;-69
2023/04/22 06:48:31;;;;;;;3.53;3.07;;;14.40;62.30;;;13.89;52.47;97464.03;5052031;28;20461;-72
2023/04/22 06:51:00;;;;;;;3.30;3.00;;;14.40;61.30;;;13.80;52.56;97460.94;5042960;28;20468;-74
2023/04/22 06:53:28;;;;;;;4.37;3.40;;;14.30;61.40;;;14.01;52.36;97459.31;5039304;28;20454;-75
2023/04/22 06:55:55;;;;;;;3.33;2.90;;;14.40;61.00;;;14.22;50.91;97465.00;5054445;28;20450;-72
2023/04/22 06:58:22;;;;;;;3.77;3.47;;;14.60;60.20;;;14.53;50.78;97459.13;5028246;28;20455;-73
2023/04/22 07:00:50;;;;;;;5.47;2.90;;;14.80;59.90;;;14.55;49.66;97465.13;5039873;28;20625;-76
2023/04/22 07:03:17;;;;;;;4.57;4.17;;;15.00;59.10;;;14.38;50.43;97460.59;5055757;28;20451;-76
2023/04/22 07:05:44;;;;;;;3.80;3.33;;;14.90;59.10;;;14.75;49.30;97452.84;5038069;28;21027;-77
2023/04/22 07:08:12;;;;;;;3.73;3.30;;;15.10;58.80;;;15.09;48.63;97447.19;5037881;28;20457;-78
2023/04/22 07:10:41;;;;;;;3.40;3.10;;;15.40;58.50;;;14.93;49.19;97443.50;5057688;28;20870;-77
2023/04/22 07:13:08;;;;;;;3.67;3.30;;;15.40;58.30;;;15.29;48.60;97441.91;5040481;28;20951;-77
2023/04/22 07:15:36;;;;;;;3.20;2.90;;;15.70;58.20;;;15.36;48.42;97441.69;5058779;28;20462;-76
2023/04/22 07:18:04;;;;;;;4.33;2.97;;;15.80;57.70;;;15.76;47.97;97439.50;5046629;28;20476;-77
2023/04/22 07:20:31;;;;;;;3.70;3.33;;;16.00;57.80;;;16.03;47.30;97435.88;5050736;28;20444;-77
2023/04/22 07:22:58;;;;;;;5.03;4.07;;;16.30;57.30;;;15.79;47.25;97428.09;5038305;28;20465;-77
2023/04/22 07:25:28;;;;;;;4.30;3.20;;;16.30;56.90;;;16.06;46.60;97439.94;5039406;28;21185;-77
2023/04/22 07:27:56;;;;;;;3.47;3.17;;;16.40;56.60;;;16.29;46.36;97444.97;5031279;28;20453;-73
2023/04/22 07:30:24;;;;;;;4.20;3.20;;;16.50;56.50;;;16.23;46.48;97431.59;5036648;28;20470;-74
2023/04/22 07:32:52;;;;;;;3.80;3.40;;;16.60;56.30;;;16.34;46.37;97438.72;5035299;28;20519;-78
2023/04/22 07:35:19;;;;;;;3.20;2.60;;;16.60;56.20;;;16.40;45.86;97436.84;5056588;28;21011;-75
2023/04/22 07:37:46;;;;;;;3.20;2.90;;;16.70;55.90;;;16.34;46.27;97441.44;5045768;28;20453;-76
2023/04/22 07:40:13;;;;;;;2.80;2.50;;;16.70;55.80;;;16.67;45.71;97442.09;5050291;28;20467;-75
2023/04/22 07:42:42;;;;;;;3.50;2.93;;;16.80;56.00;;;16.80;45.32;97435.28;5055526;28;20874;-76
2023/04/22 07:45:10;;;;;;;4.87;3.67;;;17.10;55.70;;;16.50;45.76;97436.84;5065482;28;20475;-75
2023/04/22 07:47:37;;;;;;;4.17;3.07;;;17.00;55.20;;;16.47;45.95;97437.41;5050037;28;20464;-76
2023/04/22 07:50:07;;;;;;;4.20;3.77;;;16.90;55.30;;;16.34;46.66;97427.00;5053346;28;20459;-77
2023/04/22 07:52:35;;;;;;;3.00;2.70;;;16.80;55.60;;;16.42;46.31;97429.22;5045945;28;20469;-74
2023/04/22 07:55:02;;;;;;;2.70;2.50;;;16.80;55.40;;;16.71;46.04;97432.28;5047112;28;20546;-76
2023/04/22 07:57:31;;;;;;;4.70;3.33;;;17.00;55.50;;;16.60;45.50;97430.59;5048081;28;20466;-74
2023/04/22 08:00:00;;;;;;;2.83;2.50;;;17.00;55.10;;;16.50;45.74;97436.84;5044815;28;20489;-75
2023/04/22 08:02:27;;;;;;;2.90;2.60;;;17.00;55.00;;;16.69;46.02;97429.00;5035196;28;20467;-75
2023/04/22 08:04:54;;;;;;;3.47;3.17;;;17.00;55.10;;;16.81;45.62;97433.38;5037883;28;20454;-73
2023/04/22 08:07:22;;;;;;;2.30;2.10;;;17.10;55.30;;;16.81;45.15;97436.13;5038776;28;20571;-73
2023/04/22 08:09:49;;;;;;;4.80;3.40;;;17.20;54.80;;;16.64;45.51;97441.78;5052288;28;20470;-77
2023/04/22 08:12:16;;;;;;;3.17;2.67;;;17.10;54.70;;;17.24;45.01;97450.38;5048695;28;20456;-76
2023/04/22 08:14:46;;;;;;;3.00;2.70;;;17.40;55.00;;;17.24;44.16;97442.19;5028933;28;20446;-75
2023/04/22 08:17:15;;;;;;;2.60;2.40;;;17.60;54.20;;;17.31;44.15;97435.63;5061847;28;20566;-74
2023/04/22 08:19:42;;;;;;;4.23;3.27;;;17.60;54.10;;;17.16;44.52;97440.00;5037996;28;20487;-78
2023/04/22 08:22:12;;;;;;;3.00;2.80;;;17.60;53.90;;;17.09;44.58;97432.06;5042240;28;20531;-76
2023/04/22 08:24:40;;;;;;;3.10;2.80;;;17.50;53.90;;;17.06;44.98;97424.44;5040996;28;20456;-76
2023/04/22 08:27:07;;;;;;;3.30;2.80;;;17.40;54.10;;;16.79;44.42;97372.84;5039789;28;20473;-77
2023/04/22 08:29:36;;;;;;;3.83;3.07;;;17.50;54.00;;;17.28;44.47;97413.25;5066711;28;20478;-77
2023/04/22 08:32:03;;;;;;;2.57;2.37;;;17.60;54.00;;;17.40;43.99;97429.34;5041565;28;20874;-71
2023/04/22 08:34:32;;;;;;;3.17;2.87;;;17.70;53.70;;;17.54;43.87;97428.78;5045858;28;20492;-74
2023/04/22 08:36:59;;;;;;;3.70;2.97;;;17.90;53.70;;;17.45;43.51;97408.59;5043187;28;20473;-74
2023/04/22 08:39:27;;;;;;;2.90;2.30;;;17.90;53.30;;;17.74;43.45;97425.19;5037536;28;21219;-74
2023/04/22 08:41:55;;;;;;;2.50;2.30;;;18.00;53.40;;;17.79;43.39;97438.03;5039009;28;20452;-71
2023/04/22 08:44:23;;;;;;;3.77;2.70;;;18.10;53.30;;;17.90;43.37;97433.34;5038435;28;20503;-73
2023/04/22 08:46:51;;;;;;;3.33;2.80;;;18.10;53.40;;;17.82;43.55;97442.94;5034982;28;20481;-74
2023/04/22 08:49:20;;;;;;;2.20;2.10;;;18.20;53.50;;;18.03;43.12;97441.00;5045044;28;20465;-72
2023/04/22 08:51:51;;;;;;;2.73;2.53;;;18.20;53.20;;;17.55;43.65;97431.25;5056662;28;20453;-74
2023/04/22 08:54:19;;;;;;;3.10;2.37;;;18.10;53.20;;;18.07;43.59;97427.59;5045306;28;20476;-75
2023/04/22 08:56:46;;;;;;;2.43;2.23;;;18.30;53.70;;;18.06;43.02;97421.28;5046604;28;20453;-76
2023/04/22 08:59:14;;;;;;;2.50;2.30;;;18.40;53.10;;;18.07;43.22;97409.25;5049669;28;20452;-74
2023/04/22 09:01:42;;;;;;;3.70;2.70;;;18.40;53.30;;;18.00;43.22;97419.66;5049765;28;20457;-74
2023/04/22 09:04:10;;;;;;;2.93;2.20;;;18.50;53.00;;;18.25;42.73;97413.28;5059222;28;20805;-72
2023/04/22 09:06:39;;;;;;;3.10;2.80;;;18.60;53.00;;;18.37;41.81;97399.28;5038727;28;20539;-74
2023/04/22 09:09:08;;;;;;;2.40;2.20;;;18.80;52.50;;;18.08;42.61;97405.44;5052200;28;20441;-76
2023/04/22 09:11:37;;;;;;;2.23;1.87;;;18.60;52.30;;;18.31;42.34;97405.91;5065191;28;20450;-78
2023/04/22 09:14:04;;;;;;;2.53;2.33;;;18.70;52.50;;;18.53;41.71;97391.00;5042841;28;20472;-73
2023/04/22 09:16:32;;;;;;;2.90;2.60;;;18.90;52.00;;;18.80;41.36;97400.69;5037223;28;20453;-74
2023/04/22 09:19:00;;;;;;;4.63;2.40;;;19.10;52.00;;;18.98;40.67;97401.91;5042850;28;21013;-74
2023/04/22 09:21:28;;;;;;;2.40;2.20;;;19.20;51.50;;;19.10;40.97;97393.38;5047673;28;20463;-73
2023/04/22 09:23:56;;;;;;;2.30;2.10;;;19.30;51.80;;;19.50;39.86;97396.00;5041625;28;20463;-71
2023/04/22 09:26:26;;;;;;;2.43;2.23;;;19.60;51.40;;;19.54;39.56;97389.69;5037715;28;20523;-72
2023/04/22 09:28:57;;;;;;;2.63;2.07;;;19.70;51.00;;;19.91;38.71;97397.50;5040934;28;20546;-72
2023/04/22 09:31:24;;;;;;;2.47;2.03;;;19.90;50.60;;;19.67;38.92;97379.13;5045526;28;20556;-74
2023/04/22 09:33:56;;;;;;;3.90;2.20;;;20.00;50.30;;;19.91;38.75;97381.88;5037075;28;20454;-72
2023/04/22 09:36:26;;;;;;;4.10;2.53;;;20.20;50.50;;;20.07;38.38;97388.00;5064797;28;20733;-72
2023/04/22 09:38:56;;;;;;;1.90;1.80;;;20.20;50.10;;;19.88;38.44;97389.88;5054015;28;20459;-70
2023/04/22 09:41:33;;;;;;;3.10;2.40;;;20.10;49.80;;;19.99;38.17;97369.47;5062960;28;20459;-71
2023/04/22 09:44:02;;;;;;;2.90;2.30;;;20.20;49.70;;;20.22;37.77;97388.94;5054639;28;20464;-74
2023/04/22 09:46:32;;;;;;;2.20;2.00;;;20.30;49.60;;;20.15;37.88;97383.00;5039056;28;20472;-72
2023/04/22 09:49:00;;;;;;;2.43;1.60;;;20.40;49.40;;;20.19;37.11;97395.84;5045374;28;20459;-73
2023/04/22 09:51:29;;;;;;;2.30;1.70;;;20.50;48.80;;;20.16;37.14;97379.16;5044943;28;20460;-73
2023/04/22 09:54:03;;;;;;;2.10;1.80;;;20.50;48.70;;;20.31;36.72;97348.78;5036848;28;20485;-72
2023/04/22 09:56:46;;;;;;;3.20;1.83;;;20.60;48.60;;;20.64;36.98;97379.03;5040226;28;20453;-73
2023/04/22 09:59:17;;;;;;;3.20;2.40;;;20.80;48.60;;;20.72;36.59;97368.50;5037521;28;20451;-73
2023/04/22 10:01:45;;;;;;;2.30;2.10;;;20.90;48.40;;;20.80;36.54;97365.94;5042179;28;20446;-72
2023/04/22 10:04:13;;;;;;;2.13;2.03;;;21.00;48.40;;;21.10;36.31;97365.72;5064927;28;20691;-72
2023/04/22 10:06:41;;;;;;;2.57;2.37;;;21.30;48.50;;;20.70;36.58;97326.78;5067932;28;20457;-73
2023/04/22 10:09:08;;;;;;;2.23;1.80;;;21.20;48.50;;;20.99;36.91;97361.50;5042574;28;20511;-74
2023/04/22 10:11:36;;;;;;;2.50;2.20;;;21.20;48.60;;;20.96;36.35;97368.44;5044655;28;20457;-73
2023/04/22 10:14:04;;;;;;;2.60;1.97;;;21.30;48.00;;;21.13;35.75;97367.84;5044283;28;20443;-74
2023/04/22 10:16:34;;;;;;;2.20;2.00;;;21.30;47.80;;;20.48;36.04;97331.81;5031945;28;21423;-73
2023/04/22 10:19:05;;;;;;;2.33;2.20;;;21.10;47.50;;;21.27;35.28;97353.34;5043928;28;20456;-73
2023/04/22 10:21:33;;;;;;;2.60;2.40;;;21.30;47.50;;;21.22;35.77;97348.75;5040812;28;20467;-73
2023/04/22 10:24:01;;;;;;;2.50;2.00;;;21.40;47.50;;;21.45;35.26;97357.16;5039626;28;20464;-76